Time;durP1;ratioP1;P1;durP2;ratioP2;P2;SDS_P1;SDS_P2;PMS_P1;PMS_P2;Temp;Humidity;BMP_temperature;BMP_pressure;BME280_temperature;BME280_humidity;BME280_pressure;Samples;Min_cycle;Max_cycle;Signal;HPM_P1;HPM_P2
2022/09/19 00:00:43;;;;;;;0.40;0.20;;;;;;;-148.22;100.00;64452.44;5011550;28;20119;-64
2022/09/19 00:03:10;;;;;;;0.32;0.20;;;;;;;-148.22;100.00;64452.44;5024019;28;20118;-65
2022/09/19 00:05:40;;;;;;;0.20;0.20;;;;;;;-148.22;100.00;64452.44;5028379;28;20227;-64
2022/09/19 00:08:08;;;;;;;0.35;0.20;;;;;;;-148.22;100.00;64452.44;5024477;28;20052;-63
2022/09/19 00:10:42;;;;;;;0.10;0.10;;;;;;;-148.22;100.00;64452.44;5012805;28;20042;-62
2022/09/19 00:13:08;;;;;;;0.80;0.20;;;;;;;-148.22;100.00;64452.44;5035216;28;20029;-63
2022/09/19 00:15:36;;;;;;;0.32;0.10;;;;;;;-148.22;100.00;64452.44;5020878;28;20117;-63
2022/09/19 00:18:03;;;;;;;0.63;0.25;;;;;;;-148.22;100.00;64452.44;5027902;28;20045;-62
2022/09/19 00:20:30;;;;;;;1.23;0.30;;;;;;;-148.22;100.00;64452.44;5013429;28;20061;-64
2022/09/19 00:25:42;;;;;;;0.75;0.20;;;;;;;-148.22;100.00;64452.44;5009117;28;20037;-63
2022/09/19 00:28:08;;;;;;;0.28;0.20;;;;;;;-148.22;100.00;64452.44;5024755;28;20041;-65
2022/09/19 00:30:39;;;;;;;0.38;0.20;;;;;;;-148.22;100.00;64452.44;5014839;28;20125;-64
2022/09/19 00:33:05;;;;;;;0.32;0.10;;;;;;;-148.22;100.00;64452.44;5019735;28;20384;-64
2022/09/19 00:35:32;;;;;;;1.17;0.20;;;;;;;-148.22;100.00;64452.44;5028444;28;20128;-63
2022/09/19 00:37:59;;;;;;;0.88;0.28;;;;;;;-148.22;100.00;64452.44;5009944;28;20069;-63
2022/09/19 00:40:25;;;;;;;0.30;0.20;;;;;;;-148.22;100.00;64452.44;5009059;28;20648;-63
2022/09/19 00:42:52;;;;;;;0.40;0.17;;;;;;;-148.22;100.00;64452.44;5010120;28;20076;-64
2022/09/19 00:45:19;;;;;;;0.77;0.20;;;;;;;-148.22;100.00;64452.44;5016227;28;20052;-64
2022/09/19 00:47:48;;;;;;;0.25;0.20;;;;;;;-148.22;100.00;64452.44;5026317;28;20428;-64
2022/09/19 00:50:26;;;;;;;0.10;0.10;;;;;;;-148.22;100.00;64452.44;5022886;28;20497;-64
2022/09/19 00:53:04;;;;;;;0.10;0.10;;;;;;;-148.22;100.00;64452.44;5030783;28;20405;-64
2022/09/19 00:55:31;;;;;;;0.30;0.20;;;;;;;-148.22;100.00;64452.44;5027887;28;20112;-64
2022/09/19 00:58:05;;;;;;;0.20;0.10;;;;;;;-148.22;100.00;64452.44;5022966;28;20041;-63
2022/09/19 01:00:34;;;;;;;0.30;0.20;;;;;;;-148.22;100.00;64452.44;5008932;28;20440;-63
2022/09/19 01:03:06;;;;;;;0.32;0.20;;;;;;;-148.22;100.00;64452.44;5019858;28;20053;-63
2022/09/19 01:05:45;;;;;;;0.35;0.20;;;;;;;-148.22;100.00;64452.44;5013881;28;20133;-63
2022/09/19 01:08:39;;;;;;;0.30;0.25;;;;;;;-148.22;100.00;64452.44;5027118;28;20095;-63
2022/09/19 01:11:19;;;;;;;0.65;0.30;;;;;;;-148.22;100.00;64452.44;5015865;28;20046;-64
2022/09/19 01:13:54;;;;;;;1.23;0.28;;;;;;;-148.22;100.00;64452.44;5021577;28;20452;-64
2022/09/19 01:16:33;;;;;;;0.55;0.40;;;;;;;-148.22;100.00;64452.44;5027723;28;20501;-64
2022/09/19 01:19:45;;;;;;;0.38;0.38;;;;;;;-148.22;100.00;64452.44;5026005;28;20136;-63
2022/09/19 01:22:33;;;;;;;0.98;0.60;;;;;;;-148.22;100.00;64452.44;5007186;28;20092;-63
2022/09/19 01:25:17;;;;;;;2.63;0.95;;;;;;;-148.22;100.00;64452.44;5012051;28;20069;-63
2022/09/19 01:27:58;;;;;;;2.22;0.60;;;;;;;-148.22;100.00;64452.44;5019846;28;21132;-64
2022/09/19 01:30:26;;;;;;;1.33;0.60;;;;;;;-148.22;100.00;64452.44;5021612;28;20041;-63
2022/09/19 01:32:59;;;;;;;1.85;0.70;;;;;;;-148.22;100.00;64452.44;5022747;28;20509;-63
2022/09/19 01:35:33;;;;;;;1.58;0.70;;;;;;;-148.22;100.00;64452.44;5006486;28;20048;-64
2022/09/19 01:38:26;;;;;;;1.08;0.70;;;;;;;-148.22;100.00;64452.44;5000235;28;20033;-64
2022/09/19 01:40:55;;;;;;;1.60;0.57;;;;;;;-148.22;100.00;64452.44;5020032;28;20508;-64
2022/09/19 01:43:22;;;;;;;2.67;0.60;;;;;;;-148.22;100.00;64452.44;5021508;28;20044;-63
2022/09/19 01:45:51;;;;;;;1.88;0.77;;;;;;;-148.22;100.00;64452.44;5025608;28;20135;-63
2022/09/19 01:48:29;;;;;;;3.40;0.75;;;;;;;-148.22;100.00;64452.44;5017918;28;20046;-64
2022/09/19 01:51:37;;;;;;;1.88;0.50;;;;;;;-148.22;100.00;64452.44;5025931;28;20447;-62
2022/09/19 01:54:34;;;;;;;3.38;0.77;;;;;;;-148.22;100.00;64452.44;5018560;28;20092;-63
2022/09/19 01:57:15;;;;;;;2.85;0.93;;;;;;;-148.22;100.00;64452.44;5018693;28;20104;-63
2022/09/19 01:59:51;;;;;;;3.45;0.60;;;;;;;-148.22;100.00;64452.44;5025519;28;20038;-64
2022/09/19 02:02:35;;;;;;;3.40;0.70;;;;;;;-148.22;100.00;64452.44;5015224;28;20053;-64
2022/09/19 02:05:13;;;;;;;2.72;0.60;;;;;;;-148.22;100.00;64452.44;5008882;28;20041;-64
2022/09/19 02:07:52;;;;;;;1.30;0.60;;;;;;;-148.22;100.00;64452.44;5018340;28;20414;-63
2022/09/19 02:10:41;;;;;;;1.17;0.60;;;;;;;-148.22;100.00;64452.44;5022517;28;20128;-63
2022/09/19 02:13:11;;;;;;;2.03;0.60;;;;;;;-148.22;100.00;64452.44;5036596;28;20136;-63
2022/09/19 02:15:52;;;;;;;1.05;0.55;;;;;;;-148.22;100.00;64452.44;5020071;28;20046;-64
2022/09/19 02:18:29;;;;;;;3.28;0.70;;;;;;;-148.22;100.00;64452.44;5003950;28;20425;-63
2022/09/19 02:21:05;;;;;;;2.00;0.60;;;;;;;-148.22;100.00;64452.44;5017569;28;20046;-62
2022/09/19 02:23:37;;;;;;;1.38;0.60;;;;;;;-148.22;100.00;64452.44;5021905;28;20523;-63
2022/09/19 02:26:06;;;;;;;1.13;0.60;;;;;;;-148.22;100.00;64452.44;5024691;28;20451;-63
2022/09/19 02:28:39;;;;;;;1.02;0.60;;;;;;;-148.22;100.00;64452.44;5016434;28;20508;-63
2022/09/19 02:31:11;;;;;;;4.65;0.70;;;;;;;-148.22;100.00;64452.44;5014991;28;20133;-63
2022/09/19 02:33:43;;;;;;;3.53;0.70;;;;;;;-148.22;100.00;64452.44;5013202;28;20136;-61
2022/09/19 02:36:31;;;;;;;3.47;0.77;;;;;;;-148.22;100.00;64452.44;5025673;28;20077;-63
2022/09/19 02:39:23;;;;;;;0.98;0.52;;;;;;;-148.22;100.00;64452.44;5005460;28;20054;-63
2022/09/19 02:42:04;;;;;;;;;;;;;;;-148.22;100.00;64452.44;5018405;28;20051;-63
2022/09/19 02:44:57;;;;;;;0.68;0.50;;;;;;;-148.22;100.00;64452.44;5028481;28;19953;-62
2022/09/19 02:47:33;;;;;;;2.30;0.55;;;;;;;-148.22;100.00;64452.44;5015932;28;20046;-63
2022/09/19 02:50:36;;;;;;;3.53;0.80;;;;;;;-148.22;100.00;64452.44;5005893;28;20060;-63
2022/09/19 02:53:08;;;;;;;3.17;0.52;;;;;;;-148.22;100.00;64452.44;5024918;28;20044;-63
2022/09/19 02:55:45;;;;;;;1.92;0.70;;;;;;;-148.22;100.00;64452.44;5008962;28;20572;-63
2022/09/19 02:58:14;;;;;;;1.98;0.60;;;;;;;-148.22;100.00;64452.44;5022177;28;20456;-63
2022/09/19 03:00:46;;;;;;;3.25;0.65;;;;;;;-148.22;100.00;64452.44;5017861;28;20061;-63
2022/09/19 03:06:06;;;;;;;1.02;0.60;;;;;;;-148.22;100.00;64452.44;5005344;28;20042;-62
2022/09/19 03:08:36;;;;;;;2.50;0.80;;;;;;;-148.22;100.00;64452.44;5024615;28;20581;-63
2022/09/19 03:11:13;;;;;;;5.15;0.80;;;;;;;-148.22;100.00;64452.44;5007340;28;20436;-64
2022/09/19 03:13:41;;;;;;;2.08;0.60;;;;;;;-148.22;100.00;64452.44;5039516;28;20041;-63
2022/09/19 03:16:13;;;;;;;3.65;0.93;;;;;;;-148.22;100.00;64452.44;5016827;28;20053;-63
2022/09/19 03:18:43;;;;;;;4.43;0.80;;;;;;;-148.22;100.00;64452.44;5025932;28;20052;-63
2022/09/19 03:21:11;;;;;;;4.43;0.73;;;;;;;-148.22;100.00;64452.44;5007620;28;20461;-63
2022/09/19 03:23:44;;;;;;;2.80;0.75;;;;;;;-148.22;100.00;64452.44;5023637;28;20790;-64
2022/09/19 03:26:21;;;;;;;4.97;0.90;;;;;;;-148.22;100.00;64452.44;5005706;28;20093;-64
2022/09/19 03:28:49;;;;;;;1.40;0.50;;;;;;;-148.22;100.00;64452.44;5024330;28;20132;-63
2022/09/19 03:31:16;;;;;;;3.22;0.70;;;;;;;-148.22;100.00;64452.44;5009860;28;20045;-63
2022/09/19 03:33:43;;;;;;;5.90;1.17;;;;;;;-148.22;100.00;64452.44;5022731;28;20072;-63
2022/09/19 03:36:11;;;;;;;2.58;0.73;;;;;;;-148.22;100.00;64452.44;5027511;28;20128;-64
2022/09/19 03:38:44;;;;;;;5.35;0.90;;;;;;;-148.22;100.00;64452.44;5027255;28;20159;-64
2022/09/19 03:41:16;;;;;;;6.47;1.05;;;;;;;-148.22;100.00;64452.44;5011160;28;20130;-64
2022/09/19 03:43:43;;;;;;;4.60;0.77;;;;;;;-148.22;100.00;64452.44;5026278;28;20042;-63
2022/09/19 03:46:15;;;;;;;4.32;1.05;;;;;;;-148.22;100.00;64452.44;5016561;28;20050;-64
2022/09/19 03:48:45;;;;;;;6.47;1.48;;;;;;;-148.22;100.00;64452.44;5026609;28;20539;-63
2022/09/19 03:51:16;;;;;;;3.80;0.80;;;;;;;-148.22;100.00;64452.44;5014607;28;20136;-62
2022/09/19 03:53:44;;;;;;;4.32;1.00;;;;;;;-148.22;100.00;64452.44;5027567;28;20046;-63
2022/09/19 03:56:13;;;;;;;3.85;0.82;;;;;;;-148.22;100.00;64452.44;5021387;28;20125;-62
2022/09/19 03:58:41;;;;;;;5.32;1.00;;;;;;;-148.22;100.00;64452.44;5018910;28;20466;-63
2022/09/19 04:01:09;;;;;;;5.05;0.85;;;;;;;-148.22;100.00;64452.44;5011745;28;20521;-64
2022/09/19 04:03:37;;;;;;;3.40;1.00;;;;;;;-148.22;100.00;64452.44;5021815;28;20582;-64
2022/09/19 04:06:07;;;;;;;2.53;0.70;;;;;;;-148.22;100.00;64452.44;5012028;28;20050;-64
2022/09/19 04:08:34;;;;;;;5.55;0.98;;;;;;;-148.22;100.00;64452.44;5007910;28;20041;-63
2022/09/19 04:11:01;;;;;;;6.50;1.10;;;;;;;-148.22;100.00;64452.44;5021142;28;20045;-63
2022/09/19 04:13:29;;;;;;;6.50;0.95;;;;;;;-148.22;100.00;64452.44;5035569;28;20045;-63
2022/09/19 04:16:02;;;;;;;7.22;1.10;;;;;;;-148.22;100.00;64452.44;5026375;28;20046;-63
2022/09/19 04:18:28;;;;;;;3.95;1.00;;;;;;;-148.22;100.00;64452.44;5029016;28;20083;-64
2022/09/19 04:20:55;;;;;;;3.65;1.02;;;;;;;-148.22;100.00;64452.44;5015379;28;20073;-64
2022/09/19 04:23:43;;;;;;;1.67;0.88;;;;;;;-148.22;100.00;64452.44;5019166;28;20049;-63
2022/09/19 04:26:43;;;;;;;4.13;1.17;;;;;;;-148.22;100.00;64452.44;5023079;28;20060;-64
2022/09/19 04:29:10;;;;;;;3.05;0.90;;;;;;;-148.22;100.00;64452.44;5023586;28;20037;-64
2022/09/19 04:31:40;;;;;;;6.88;1.08;;;;;;;-148.22;100.00;64452.44;5009858;28;20049;-64
2022/09/19 04:34:08;;;;;;;6.88;1.23;;;;;;;-148.22;100.00;64452.44;5018148;28;20041;-63
2022/09/19 04:36:35;;;;;;;6.38;1.35;;;;;;;-148.22;100.00;64452.44;5017282;28;20049;-63
2022/09/19 04:39:02;;;;;;;4.50;1.10;;;;;;;-148.22;100.00;64452.44;5021719;28;20042;-63
2022/09/19 04:41:33;;;;;;;5.68;1.50;;;;;;;-148.22;100.00;64452.44;5015077;28;20034;-62
2022/09/19 04:44:03;;;;;;;3.47;1.33;;;;;;;-148.22;100.00;64452.44;5020519;28;20468;-62
2022/09/19 04:46:44;;;;;;;4.38;1.00;;;;;;;-148.22;100.00;64452.44;5024026;28;20091;-63
2022/09/19 04:49:13;;;;;;;4.78;1.02;;;;;;;-148.22;100.00;64452.44;5025424;28;20095;-65
2022/09/19 04:51:39;;;;;;;9.00;1.45;;;;;;;-148.22;100.00;64452.44;5021631;28;20045;-63
2022/09/19 04:54:06;;;;;;;7.68;1.48;;;;;;;-148.22;100.00;64452.44;5030904;28;20153;-63
2022/09/19 04:56:32;;;;;;;6.60;1.20;;;;;;;-148.22;100.00;64452.44;5015981;28;20061;-64
2022/09/19 04:58:59;;;;;;;4.85;1.83;;;;;;;-148.22;100.00;64452.44;5026092;28;20602;-63
2022/09/19 05:01:26;;;;;;;4.30;1.13;;;;;;;-148.22;100.00;64452.44;5020711;28;20089;-64
2022/09/19 05:03:53;;;;;;;8.18;1.60;;;;;;;-148.22;100.00;64452.44;5013596;28;20057;-62
2022/09/19 05:06:20;;;;;;;7.13;1.30;;;;;;;-148.22;100.00;64452.44;5015938;28;20034;-64
2022/09/19 05:08:46;;;;;;;5.57;1.58;;;;;;;-148.22;100.00;64452.44;5008477;28;20038;-65
2022/09/19 05:11:33;;;;;;;4.20;1.00;;;;;;;-148.22;100.00;64452.44;5026086;28;20060;-64
2022/09/19 05:14:00;;;;;;;6.78;1.17;;;;;;;-148.22;100.00;64452.44;5024451;28;20053;-62
2022/09/19 05:16:29;;;;;;;7.07;1.27;;;;;;;-148.22;100.00;64452.44;5022850;28;20038;-61
2022/09/19 05:19:01;;;;;;;2.67;0.88;;;;;;;-148.22;100.00;64452.44;5024274;28;20053;-62
2022/09/19 05:21:28;;;;;;;5.88;1.20;;;;;;;-148.22;100.00;64452.44;5009231;28;20467;-64
2022/09/19 05:23:57;;;;;;;6.63;1.20;;;;;;;-148.22;100.00;64452.44;5034779;28;20037;-64
2022/09/19 05:26:24;;;;;;;4.63;1.10;;;;;;;-148.22;100.00;64452.44;5023628;28;20275;-62
2022/09/19 05:28:53;;;;;;;8.00;1.73;;;;;;;-148.22;100.00;64452.44;5022484;28;20672;-61
2022/09/19 05:31:24;;;;;;;6.03;1.20;;;;;;;-148.22;100.00;64452.44;5020952;28;20454;-63
2022/09/19 05:34:13;;;;;;;7.53;2.63;;;;;;;-148.22;100.00;64452.44;5024114;28;20471;-64
2022/09/19 05:36:41;;;;;;;6.72;2.30;;;;;;;-148.22;100.00;64452.44;5022696;28;20103;-63
2022/09/19 05:39:17;;;;;;;5.30;1.55;;;;;;;-148.22;100.00;64452.44;5020895;28;20129;-63
2022/09/19 05:42:00;;;;;;;6.65;1.42;;;;;;;-148.22;100.00;64452.44;5029506;28;20390;-64
2022/09/19 05:44:28;;;;;;;7.22;1.73;;;;;;;-148.22;100.00;64452.44;5026535;28;20049;-61
2022/09/19 05:46:58;;;;;;;4.93;1.05;;;;;;;-148.22;100.00;64452.44;5021634;28;20049;-62
2022/09/19 05:49:25;;;;;;;7.72;1.80;;;;;;;-148.22;100.00;64452.44;5024332;28;20065;-64
2022/09/19 05:51:55;;;;;;;5.05;1.20;;;;;;;-148.22;100.00;64452.44;5036436;28;20045;-63
2022/09/19 05:54:23;;;;;;;5.03;1.42;;;;;;;-148.22;100.00;64452.44;5021931;28;20099;-63
2022/09/19 05:57:09;;;;;;;4.32;1.05;;;;;;;-148.22;100.00;64452.44;5030792;28;20060;-61
2022/09/19 05:59:36;;;;;;;5.55;1.35;;;;;;;-148.22;100.00;64452.44;5024434;28;20041;-61
2022/09/19 06:02:05;;;;;;;7.20;1.10;;;;;;;-148.22;100.00;64452.44;5025255;28;20136;-62
2022/09/19 06:04:49;;;;;;;6.22;1.60;;;;;;;-148.22;100.00;64452.44;5012815;28;20061;-60
2022/09/19 06:07:15;;;;;;;5.30;1.33;;;;;;;-148.22;100.00;64452.44;5037351;28;20053;-62
2022/09/19 06:09:44;;;;;;;4.53;1.23;;;;;;;-148.22;100.00;64452.44;5019639;28;20484;-61
2022/09/19 06:12:12;;;;;;;4.47;1.15;;;;;;;-148.22;100.00;64452.44;5027084;28;20085;-60
2022/09/19 06:14:38;;;;;;;5.22;1.45;;;;;;;-148.22;100.00;64452.44;5024644;28;20223;-63
2022/09/19 06:17:08;;;;;;;5.97;1.60;;;;;;;-148.22;100.00;64452.44;5022940;28;20049;-61
2022/09/19 06:19:56;;;;;;;8.07;1.60;;;;;;;-148.22;100.00;64452.44;5023304;28;20045;-62
2022/09/19 06:22:26;;;;;;;3.88;1.20;;;;;;;-148.22;100.00;64452.44;5021864;28;20469;-61
2022/09/19 06:24:55;;;;;;;6.95;1.60;;;;;;;-148.22;100.00;64452.44;5005215;28;20042;-61
2022/09/19 06:27:22;;;;;;;6.38;1.38;;;;;;;-148.22;100.00;64452.44;5006029;28;20050;-61
2022/09/19 06:29:48;;;;;;;5.88;1.52;;;;;;;-148.22;100.00;64452.44;5021980;28;20168;-62
2022/09/19 06:32:20;;;;;;;7.75;1.20;;;;;;;-148.22;100.00;64452.44;5006475;28;20104;-62
2022/09/19 06:34:51;;;;;;;3.50;1.15;;;;;;;-148.22;100.00;64452.44;5005580;28;20056;-62
2022/09/19 06:37:26;;;;;;;11.18;2.83;;;;;;;-148.22;100.00;64452.44;5010525;28;20045;-62
2022/09/19 06:39:52;;;;;;;7.75;1.70;;;;;;;-148.22;100.00;64452.44;5005384;28;20501;-62
2022/09/19 06:42:38;;;;;;;7.97;1.70;;;;;;;-148.22;100.00;64452.44;5028592;28;20228;-61
2022/09/19 06:45:23;;;;;;;7.18;1.58;;;;;;;-148.22;100.00;64452.44;5046479;28;20060;-62
2022/09/19 06:48:12;;;;;;;9.98;2.17;;;;;;;-148.22;100.00;64452.44;5034699;28;20063;-62
2022/09/19 06:50:47;;;;;;;4.03;1.40;;;;;;;-148.22;100.00;64452.44;5024690;28;20045;-63
2022/09/19 06:53:16;;;;;;;7.32;1.27;;;;;;;-148.22;100.00;64452.44;5036497;28;20056;-62
2022/09/19 06:55:44;;;;;;;5.38;1.60;;;;;;;-148.22;100.00;64452.44;5042100;28;20045;-63
2022/09/19 06:58:17;;;;;;;7.18;1.30;;;;;;;-148.22;100.00;64452.44;5023773;28;20111;-63
2022/09/19 07:00:45;;;;;;;8.75;1.88;;;;;;;-148.22;100.00;64452.44;5024344;28;20072;-61
2022/09/19 07:03:17;;;;;;;8.63;2.28;;;;;;;-148.22;100.00;64452.44;5025609;28;20053;-61
2022/09/19 07:05:51;;;;;;;6.63;1.13;;;;;;;-148.22;100.00;64452.44;5024439;28;20111;-61
2022/09/19 07:08:22;;;;;;;5.55;1.10;;;;;;;-148.22;100.00;64452.44;5025242;28;20080;-62
2022/09/19 07:10:49;;;;;;;4.35;1.38;;;;;;;-148.22;100.00;64452.44;5023535;28;20419;-61
2022/09/19 07:13:16;;;;;;;8.02;1.70;;;;;;;-148.22;100.00;64452.44;5042611;28;20102;-62
2022/09/19 07:15:48;;;;;;;;;;;;;;;-148.22;100.00;64452.44;5035557;28;20050;-61
2022/09/19 07:18:14;;;;;;;7.05;1.38;;;;;;;-148.22;100.00;64452.44;5024601;28;19932;-62
2022/09/19 07:20:44;;;;;;;5.20;1.35;;;;;;;-148.22;100.00;64452.44;5024226;28;20096;-63
2022/09/19 07:23:17;;;;;;;;;;;;;;;-148.22;100.00;64452.44;5024894;28;20049;-61
2022/09/19 07:25:56;;;;;;;7.05;1.92;;;;;;;-148.22;100.00;64452.44;5024970;28;19928;-62
2022/09/19 07:28:23;;;;;;;5.18;1.20;;;;;;;-148.22;100.00;64452.44;5030513;28;20053;-62
2022/09/19 07:30:52;;;;;;;7.72;2.63;;;;;;;-148.22;100.00;64452.44;5022370;28;20465;-62
2022/09/19 07:33:21;;;;;;;7.88;1.58;;;;;;;-148.22;100.00;64452.44;5022866;28;20140;-62
2022/09/19 07:35:48;;;;;;;9.73;1.67;;;;;;;-148.22;100.00;64452.44;5022496;28;20430;-61
2022/09/19 07:38:17;;;;;;;7.07;1.50;;;;;;;-148.22;100.00;64452.44;5022807;28;20397;-62
2022/09/19 07:41:22;;;;;;;9.45;2.00;;;;;;;-148.22;100.00;64452.44;4984659;28;20528;-62
2022/09/19 07:44:03;;;;;;;8.43;1.63;;;;;;;-148.22;100.00;64452.44;5006796;28;20457;-63
2022/09/19 07:47:26;;;;;;;5.88;1.35;;;;;;;-148.22;100.00;64452.44;5037696;28;20056;-62
2022/09/19 07:49:47;;;;;;;10.60;1.30;;;;;;;-148.22;100.00;64452.44;5044412;28;20056;-62
2022/09/19 07:52:32;;;;;;;4.95;1.38;;;;;;;-148.22;100.00;64452.44;5038620;28;20428;-62
2022/09/19 07:54:58;;;;;;;8.02;1.83;;;;;;;-148.22;100.00;64452.44;5024836;28;20505;-62
2022/09/19 07:57:26;;;;;;;10.95;2.40;;;;;;;-148.22;100.00;64452.44;5024881;28;20353;-60
2022/09/19 07:59:52;;;;;;;7.38;1.63;;;;;;;-148.22;100.00;64452.44;5024780;28;20037;-62
2022/09/19 08:02:19;;;;;;;7.20;1.48;;;;;;;-148.22;100.00;64452.44;5024026;28;20041;-62
2022/09/19 08:04:46;;;;;;;6.30;1.40;;;;;;;-148.22;100.00;64452.44;5022696;28;20057;-60
2022/09/19 08:07:13;;;;;;;9.43;1.60;;;;;;;-148.22;100.00;64452.44;5022705;28;20080;-62
2022/09/19 08:09:40;;;;;;;11.85;1.88;;;;;;;-148.22;100.00;64452.44;5006565;28;20050;-63
2022/09/19 08:12:12;;;;;;;11.55;1.67;;;;;;;-148.22;100.00;64452.44;5019162;28;20052;-63
2022/09/19 08:15:05;;;;;;;5.30;1.20;;;;;;;-148.22;100.00;64452.44;5041655;28;20091;-61
2022/09/19 08:17:32;;;;;;;5.32;1.63;;;;;;;-148.22;100.00;64452.44;5026709;28;20050;-60
2022/09/19 08:19:59;;;;;;;8.25;2.97;;;;;;;-148.22;100.00;64452.44;5028541;28;20038;-62
2022/09/19 08:22:29;;;;;;;11.98;2.55;;;;;;;-148.22;100.00;64452.44;5024870;28;20057;-61
2022/09/19 08:25:00;;;;;;;;;;;;;;;-148.22;100.00;64452.44;5026192;28;20045;-63
2022/09/19 08:27:28;;;;;;;6.55;1.13;;;;;;;-148.22;100.00;64452.44;5025994;28;19974;-62
2022/09/19 08:29:54;;;;;;;3.95;1.13;;;;;;;-148.22;100.00;64452.44;5026070;28;20033;-63
2022/09/19 08:32:21;;;;;;;5.70;1.40;;;;;;;-148.22;100.00;64452.44;5025824;28;20049;-60
2022/09/19 08:34:48;;;;;;;7.18;2.08;;;;;;;-148.22;100.00;64452.44;5027293;28;20148;-63
2022/09/19 08:37:16;;;;;;;5.85;1.10;;;;;;;-148.22;100.00;64452.44;5025749;28;20049;-62
2022/09/19 08:40:15;;;;;;;4.85;1.27;;;;;;;-148.22;100.00;64452.44;5025611;28;20160;-62
2022/09/19 08:42:48;;;;;;;6.10;1.67;;;;;;;-148.22;100.00;64452.44;5028505;28;20041;-62
2022/09/19 08:45:46;;;;;;;6.25;1.10;;;;;;;-148.22;100.00;64452.44;5024935;28;20068;-63
2022/09/19 08:48:24;;;;;;;11.30;2.20;;;;;;;-148.22;100.00;64452.44;5005539;28;20111;-60
2022/09/19 08:51:00;;;;;;;7.05;1.38;;;;;;;-148.22;100.00;64452.44;5025985;28;20060;-62
2022/09/19 08:53:30;;;;;;;5.88;1.60;;;;;;;-148.22;100.00;64452.44;5039370;28;20056;-62
2022/09/19 08:56:00;;;;;;;7.78;1.63;;;;;;;-148.22;100.00;64452.44;5027776;28;20045;-60
2022/09/19 08:58:29;;;;;;;5.10;1.15;;;;;;;-148.22;100.00;64452.44;5027122;28;20037;-62
2022/09/19 09:01:18;;;;;;;4.80;1.15;;;;;;;-148.22;100.00;64452.44;5024970;28;20408;-62
2022/09/19 09:04:13;;;;;;;6.60;1.40;;;;;;;-148.22;100.00;64452.44;5006256;28;20590;-60
2022/09/19 09:06:52;;;;;;;;;;;;;;;-148.22;100.00;64452.44;5020740;28;20042;-65
2022/09/19 09:10:00;;;;;;;8.35;1.30;;;;;;;-148.22;100.00;64452.44;5022893;28;19925;-62
2022/09/19 09:12:49;;;;;;;4.68;1.30;;;;;;;-148.22;100.00;64452.44;5014030;28;20658;-63
2022/09/19 09:15:36;;;;;;;14.18;1.83;;;;;;;-148.22;100.00;64452.44;5022582;28;20053;-62
2022/09/19 09:18:52;;;;;;;11.18;2.20;;;;;;;-148.22;100.00;64452.44;5024970;28;20041;-61
2022/09/19 09:21:37;;;;;;;;;;;;;;;-148.22;100.00;64452.44;5024374;28;20049;-62
2022/09/19 09:24:13;;;;;;;6.65;1.45;;;;;;;-148.22;100.00;64452.44;5025198;28;19924;-60
2022/09/19 09:27:26;;;;;;;5.65;1.38;;;;;;;-148.22;100.00;64452.44;5032419;28;20057;-63
2022/09/19 09:30:09;;;;;;;11.75;1.75;;;;;;;-148.22;100.00;64452.44;5013658;28;20037;-63
2022/09/19 09:32:43;;;;;;;9.15;1.70;;;;;;;-148.22;100.00;64452.44;5041630;28;20041;-61
2022/09/19 09:35:32;;;;;;;4.53;1.20;;;;;;;-148.22;100.00;64452.44;5023605;28;20076;-61
2022/09/19 09:38:11;;;;;;;4.68;1.40;;;;;;;-148.22;100.00;64452.44;5028639;28;20076;-62
2022/09/19 09:43:44;;;;;;;6.53;1.67;;;;;;;-148.22;100.00;64452.44;5027138;28;20049;-61
2022/09/19 09:46:18;;;;;;;4.35;1.23;;;;;;;-148.22;100.00;64452.44;5023064;28;20065;-62
2022/09/19 09:48:45;;;;;;;5.75;1.58;;;;;;;-148.22;100.00;64452.44;5023872;28;20030;-61
2022/09/19 09:51:41;;;;;;;9.70;1.30;;;;;;;-148.22;100.00;64452.44;5023436;28;20517;-62
2022/09/19 09:57:32;;;;;;;7.18;1.00;;;;;;;-148.22;100.00;64452.44;5023823;28;20056;-61
2022/09/19 10:03:34;;;;;;;4.93;1.35;;;;;;;-148.22;100.00;64452.44;5016810;28;20584;-62
2022/09/19 10:06:24;;;;;;;4.65;1.20;;;;;;;-148.22;100.00;64452.44;5017561;28;20063;-62
2022/09/19 10:09:07;;;;;;;3.97;1.05;;;;;;;-148.22;100.00;64452.44;5034775;28;20060;-61
2022/09/19 10:12:08;;;;;;;7.70;1.50;;;;;;;-148.22;100.00;64452.44;5025555;28;20037;-64
2022/09/19 10:15:03;;;;;;;7.60;1.83;;;;;;;-148.22;100.00;64452.44;5023703;28;20145;-63
2022/09/19 10:17:51;;;;;;;9.68;2.20;;;;;;;-148.22;100.00;64452.44;5023301;28;20412;-62
2022/09/19 10:20:28;;;;;;;4.88;1.27;;;;;;;-148.22;100.00;64452.44;5023197;28;20073;-61
2022/09/19 10:22:57;;;;;;;7.18;2.25;;;;;;;-148.22;100.00;64452.44;5023441;28;20469;-62
2022/09/19 10:25:26;;;;;;;6.32;1.38;;;;;;;-148.22;100.00;64452.44;5022945;28;20052;-62
2022/09/19 10:27:54;;;;;;;5.32;1.02;;;;;;;-148.22;100.00;64452.44;5023281;28;20069;-62
2022/09/19 10:30:33;;;;;;;3.30;1.40;;;;;;;-148.22;100.00;64452.44;5023319;28;20263;-63
2022/09/19 10:33:17;;;;;;;2.10;0.77;;;;;;;-148.22;100.00;64452.44;5023823;28;20050;-62
2022/09/19 10:35:45;;;;;;;8.45;1.42;;;;;;;-148.22;100.00;64452.44;5019004;28;21361;-62
2022/09/19 10:38:17;;;;;;;5.47;1.17;;;;;;;-148.22;100.00;64452.44;5033510;28;20037;-62
2022/09/19 10:40:58;;;;;;;5.40;1.20;;;;;;;-148.22;100.00;64452.44;5024889;28;20069;-62
2022/09/19 10:43:50;;;;;;;6.68;1.20;;;;;;;-148.22;100.00;64452.44;5028429;28;20045;-62
2022/09/19 10:46:44;;;;;;;3.38;1.10;;;;;;;-148.22;100.00;64452.44;5033174;28;20134;-63
2022/09/19 10:49:43;;;;;;;3.47;1.00;;;;;;;-148.22;100.00;64452.44;5013713;28;20115;-61
2022/09/19 10:52:20;;;;;;;7.30;1.30;;;;;;;-148.22;100.00;64452.44;5038463;28;20053;-63
2022/09/19 10:55:15;;;;;;;3.38;1.00;;;;;;;-148.22;100.00;64452.44;5044266;28;20047;-62
2022/09/19 10:57:45;;;;;;;5.80;1.55;;;;;;;-148.22;100.00;64452.44;5033092;28;20053;-63
2022/09/19 11:00:22;;;;;;;3.90;0.80;;;;;;;-148.22;100.00;64452.44;5031655;28;20067;-63
2022/09/19 11:02:58;;;;;;;7.28;1.15;;;;;;;-148.22;100.00;64452.44;5022720;28;20152;-62
2022/09/19 11:05:30;;;;;;;4.70;0.80;;;;;;;-148.22;100.00;64452.44;5009564;28;20452;-62
2022/09/19 11:07:59;;;;;;;2.83;0.57;;;;;;;-148.22;100.00;64452.44;5023085;28;20049;-61
2022/09/19 11:10:39;;;;;;;3.97;1.27;;;;;;;-148.22;100.00;64452.44;5022737;28;20046;-62
2022/09/19 11:13:14;;;;;;;5.38;0.82;;;;;;;-148.22;100.00;64452.44;5034583;28;20624;-62
2022/09/19 11:15:55;;;;;;;3.58;0.85;;;;;;;-148.22;100.00;64452.44;5022762;28;20131;-63
2022/09/19 11:18:38;;;;;;;4.00;1.30;;;;;;;-148.22;100.00;64452.44;5022450;28;20604;-62
2022/09/19 11:21:34;;;;;;;3.45;0.93;;;;;;;-148.22;100.00;64452.44;5020514;28;20144;-64
2022/09/19 11:24:22;;;;;;;3.65;0.82;;;;;;;-148.22;100.00;64452.44;5021795;28;20052;-63
2022/09/19 11:27:15;;;;;;;3.65;1.38;;;;;;;-148.22;100.00;64452.44;5024153;28;20053;-63
2022/09/19 11:29:44;;;;;;;3.20;0.70;;;;;;;-148.22;100.00;64452.44;5007207;28;20523;-63
2022/09/19 11:32:34;;;;;;;3.85;1.00;;;;;;;-148.22;100.00;64452.44;5022366;28;20073;-63
2022/09/19 11:35:29;;;;;;;3.17;0.75;;;;;;;-148.22;100.00;64452.44;5022228;28;20073;-63
2022/09/19 11:38:28;;;;;;;1.50;0.70;;;;;;;-148.22;100.00;64452.44;5023045;28;20052;-64
2022/09/19 11:41:23;;;;;;;1.58;0.50;;;;;;;-148.22;100.00;64452.44;5007598;28;20444;-64
2022/09/19 11:44:10;;;;;;;7.45;1.38;;;;;;;-148.22;100.00;64452.44;5020293;28;20042;-64
2022/09/19 11:46:49;;;;;;;3.85;0.70;;;;;;;-148.22;100.00;64452.44;5022695;28;20111;-64
2022/09/19 11:49:37;;;;;;;2.25;0.65;;;;;;;-148.22;100.00;64452.44;5022685;28;20543;-64
2022/09/19 11:52:42;;;;;;;3.22;0.70;;;;;;;-148.22;100.00;64452.44;5025147;28;20073;-65
2022/09/19 11:55:27;;;;;;;4.03;0.90;;;;;;;-148.22;100.00;64452.44;5030903;28;20585;-63
2022/09/19 11:58:18;;;;;;;4.93;0.70;;;;;;;-148.22;100.00;64452.44;5026680;28;20045;-64
2022/09/19 12:01:26;;;;;;;5.45;0.80;;;;;;;-148.22;100.00;64452.44;5023185;28;20123;-64
2022/09/19 12:04:32;;;;;;;3.17;0.65;;;;;;;-148.22;100.00;64452.44;5023658;28;20493;-64